createdAt,value
2018-03-11T00:01:53.752Z,46.47
2018-03-11T00:04:25.089Z,47.50
2018-03-11T00:06:55.050Z,51.47
2018-03-11T00:09:24.969Z,50.10
2018-03-11T00:11:57.065Z,42.80
2018-03-11T00:14:27.748Z,52.70
2018-03-11T00:16:57.574Z,50.70
2018-03-11T00:19:33.141Z,56.57
2018-03-11T00:22:07.096Z,51.93
2018-03-11T00:24:41.672Z,55.13
2018-03-11T00:27:16.801Z,49.80
2018-03-11T00:29:50.159Z,58.40
2018-03-11T00:32:20.487Z,53.23
2018-03-11T00:34:50.475Z,65.80
2018-03-11T00:37:20.240Z,54.73
2018-03-11T00:39:52.564Z,58.83
2018-03-11T00:42:23.516Z,59.60
2018-03-11T00:44:54.689Z,50.07
2018-03-11T00:47:25.256Z,56.53
2018-03-11T00:49:55.077Z,59.67
2018-03-11T00:52:25.253Z,60.07
2018-03-11T00:54:55.165Z,57.93
2018-03-11T00:57:24.880Z,61.40
2018-03-11T00:59:55.406Z,65.83
2018-03-11T01:02:25.932Z,62.40
2018-03-11T01:04:56.256Z,66.50
2018-03-11T01:07:26.171Z,57.50
2018-03-11T01:09:55.938Z,54.57
2018-03-11T01:12:27.006Z,52.13
2018-03-11T01:14:58.167Z,58.03
2018-03-11T01:17:29.461Z,55.97
2018-03-11T01:20:01.712Z,58.37
2018-03-11T01:22:31.596Z,60.50
2018-03-11T01:25:02.737Z,60.30
2018-03-11T01:27:33.268Z,53.83
2018-03-11T01:30:06.253Z,52.30
2018-03-11T01:32:36.989Z,58.37
2018-03-11T01:35:06.904Z,69.10
2018-03-11T01:37:38.521Z,56.67
2018-03-11T01:40:08.217Z,54.20
2018-03-11T01:42:39.825Z,61.67
2018-03-11T01:45:09.732Z,67.47
2018-03-11T01:47:40.268Z,59.70
2018-03-11T01:50:10.791Z,76.73
2018-03-11T01:52:50.536Z,68.37
2018-03-11T01:55:20.245Z,73.80
2018-03-11T01:57:51.595Z,66.70
2018-03-11T02:00:21.304Z,73.00
2018-03-11T02:02:50.965Z,72.00
2018-03-11T02:05:21.542Z,68.30
2018-03-11T02:07:52.487Z,67.50
2018-03-11T02:10:22.985Z,77.10
2018-03-11T02:12:53.129Z,75.00
2018-03-11T02:15:23.247Z,77.97
2018-03-11T02:17:53.721Z,67.07
2018-03-11T02:20:24.512Z,69.83
2018-03-11T02:22:56.060Z,71.17
2018-03-11T02:25:25.976Z,68.70
2018-03-11T02:27:56.094Z,69.40
2018-03-11T02:30:26.568Z,72.30
2018-03-11T02:32:56.333Z,74.60
2018-03-11T02:35:26.042Z,61.93
2018-03-11T02:37:57.532Z,66.83
2018-03-11T02:40:27.303Z,79.87
2018-03-11T02:42:57.017Z,69.50
2018-03-11T02:45:28.575Z,63.13
2018-03-11T02:47:58.286Z,69.30
2018-03-11T02:50:28.600Z,68.27
2018-03-11T02:53:01.772Z,63.10
2018-03-11T02:55:33.342Z,68.10
2018-03-11T02:58:04.225Z,72.80
2018-03-11T03:00:34.856Z,74.87
2018-03-11T03:03:06.773Z,75.60
2018-03-11T03:05:36.619Z,73.80
2018-03-11T03:09:09.268Z,75.60
2018-03-11T03:11:39.184Z,73.17
2018-03-11T03:14:09.510Z,80.30
2018-03-11T03:16:39.461Z,82.93
2018-03-11T03:19:10.510Z,84.30
2018-03-11T03:21:41.253Z,79.97
2018-03-11T03:24:12.647Z,90.43
2018-03-11T03:26:43.587Z,88.63
2018-03-11T03:29:14.183Z,80.80
2018-03-11T03:31:44.028Z,86.60
2018-03-11T03:34:13.943Z,93.73
2018-03-11T03:36:44.422Z,90.73
2018-03-11T03:39:15.154Z,88.23
2018-03-11T03:41:45.529Z,97.53
2018-03-11T03:44:16.264Z,94.63
2018-03-11T03:46:46.740Z,89.20
2018-03-11T03:49:17.123Z,86.97
2018-03-11T03:51:49.692Z,84.17
2018-03-11T03:54:19.401Z,86.27
2018-03-11T03:56:49.932Z,85.80
2018-03-11T03:59:22.717Z,88.13
2018-03-11T04:01:55.293Z,81.03
2018-03-11T04:04:26.787Z,87.90
2018-03-11T04:06:56.857Z,84.93
2018-03-11T04:09:26.623Z,86.70
2018-03-11T04:11:57.625Z,88.20
2018-03-11T04:14:27.320Z,82.83
2018-03-11T04:16:57.848Z,81.17
2018-03-11T04:19:31.651Z,81.60
2018-03-11T04:22:01.361Z,92.80
2018-03-11T04:24:32.450Z,80.93
2018-03-11T04:27:02.222Z,79.40
2018-03-11T04:29:32.127Z,89.07
2018-03-11T04:32:02.006Z,83.60
2018-03-11T04:34:32.774Z,83.20
2018-03-11T04:37:02.689Z,91.80
2018-03-11T04:39:32.604Z,88.67
2018-03-11T04:42:02.313Z,90.30
2018-03-11T04:44:33.034Z,87.70
2018-03-11T04:47:02.801Z,97.03
2018-03-11T04:49:33.699Z,95.57
2018-03-11T04:52:03.624Z,96.30
2018-03-11T04:54:33.641Z,84.43
2018-03-11T04:57:04.211Z,83.20
2018-03-11T04:59:34.580Z,87.73
2018-03-11T05:02:05.316Z,100.50
2018-03-11T05:04:37.780Z,99.90
2018-03-11T05:07:08.226Z,84.27
2018-03-11T05:09:37.929Z,92.40
2018-03-11T05:12:08.247Z,80.40
2018-03-11T05:14:37.959Z,90.33
2018-03-11T05:17:08.438Z,89.53
2018-03-11T05:19:39.221Z,85.93
2018-03-11T05:22:12.076Z,91.57
2018-03-11T05:24:43.090Z,90.47
2018-03-11T05:27:13.675Z,86.90
2018-03-11T05:29:43.384Z,92.20
2018-03-11T05:32:13.298Z,84.17
2018-03-11T05:34:44.646Z,92.37
2018-03-11T05:37:14.358Z,79.50
2018-03-11T05:39:44.064Z,71.80
2018-03-11T05:42:15.276Z,85.13
2018-03-11T05:44:46.558Z,85.17
2018-03-11T05:47:16.676Z,80.80
2018-03-11T05:49:46.517Z,82.10
2018-03-11T05:52:17.732Z,85.37
2018-03-11T05:54:48.670Z,75.73
2018-03-11T05:57:18.998Z,76.33
2018-03-11T05:59:48.704Z,76.53
2018-03-11T06:02:20.050Z,77.33
2018-03-11T06:04:49.765Z,81.30
2018-03-11T06:07:19.679Z,79.20
2018-03-11T06:09:49.384Z,79.03
2018-03-11T06:12:19.240Z,74.40
2018-03-11T06:14:49.008Z,69.23
2018-03-11T06:17:19.484Z,69.80
2018-03-11T06:19:50.032Z,71.60
2018-03-11T06:22:20.801Z,73.07
2018-03-11T06:24:50.765Z,71.50
2018-03-11T06:27:20.642Z,65.50
2018-03-11T06:29:51.161Z,70.63
2018-03-11T06:32:23.120Z,62.50
2018-03-11T06:34:53.034Z,66.90
2018-03-11T06:37:24.549Z,70.93
2018-03-11T06:39:54.296Z,62.53
2018-03-11T06:42:24.005Z,65.57
2018-03-11T06:44:53.715Z,59.00
2018-03-11T06:47:24.756Z,60.40
2018-03-11T06:49:55.327Z,67.70
2018-03-11T06:52:26.120Z,63.53
2018-03-11T06:54:58.288Z,63.57
2018-03-11T06:57:28.615Z,54.70
2018-03-11T07:00:00.783Z,63.37
2018-03-11T07:02:31.717Z,60.63
2018-03-11T07:05:02.612Z,55.23
2018-03-11T07:07:32.369Z,57.70
2018-03-11T07:10:02.168Z,56.37
2018-03-11T07:12:31.784Z,56.93
2018-03-11T07:15:02.517Z,57.80
2018-03-11T07:17:33.455Z,52.37
2018-03-11T07:20:04.802Z,52.17
2018-03-11T07:22:34.512Z,55.70
2018-03-11T07:25:04.427Z,52.80
2018-03-11T07:27:35.569Z,56.23
2018-03-11T07:30:05.493Z,53.73
2018-03-11T07:32:35.196Z,52.17
2018-03-11T07:35:06.276Z,53.70
2018-03-11T07:37:36.706Z,52.17
2018-03-11T07:40:06.984Z,58.43
2018-03-11T07:42:37.515Z,59.30
2018-03-11T07:45:07.374Z,47.43
2018-03-11T07:47:37.140Z,50.37
2018-03-11T07:50:07.078Z,50.77
2018-03-11T07:52:36.969Z,50.90
2018-03-11T07:55:07.291Z,51.03
2018-03-11T07:57:37.205Z,50.87
2018-03-11T08:00:07.937Z,54.03
2018-03-11T08:02:38.056Z,55.60
2018-03-11T08:05:07.929Z,50.30
2018-03-11T08:07:37.886Z,55.50
2018-03-11T08:10:07.808Z,51.97
2018-03-11T08:12:38.839Z,51.67
2018-03-11T08:15:08.807Z,47.70
2018-03-11T08:17:39.180Z,51.80
2018-03-11T08:20:08.891Z,52.07
2018-03-11T08:22:41.058Z,49.10
2018-03-11T08:25:13.349Z,52.93
2018-03-11T08:27:44.673Z,53.37
2018-03-11T08:30:16.333Z,50.70
2018-03-11T08:32:47.736Z,46.33
2018-03-11T08:35:18.142Z,46.17
2018-03-11T08:37:48.001Z,50.27
2018-03-11T08:40:17.982Z,49.27
2018-03-11T08:42:48.004Z,48.90
2018-03-11T08:45:17.874Z,47.60
2018-03-11T08:47:48.392Z,44.20
2018-03-11T08:50:19.289Z,47.87
2018-03-11T08:52:51.497Z,49.23
2018-03-11T08:55:21.209Z,44.20
2018-03-11T08:57:51.078Z,54.73
2018-03-11T09:00:22.879Z,50.57
2018-03-11T09:02:56.275Z,44.50
2018-03-11T09:05:26.190Z,50.83
2018-03-11T09:07:57.128Z,45.53
2018-03-11T09:10:27.697Z,52.03
2018-03-11T09:12:59.085Z,46.30
2018-03-11T09:15:28.817Z,44.60
2018-03-11T09:17:58.525Z,48.67
2018-03-11T09:20:28.439Z,45.50
2018-03-11T09:23:00.606Z,46.37
2018-03-11T09:25:32.573Z,44.87
2018-03-11T09:28:02.575Z,47.67
2018-03-11T09:30:37.315Z,47.83
2018-03-11T09:33:08.049Z,51.13
2018-03-11T09:35:38.334Z,51.03
2018-03-11T09:38:08.285Z,50.30
2018-03-11T09:40:39.058Z,46.27
2018-03-11T09:43:09.958Z,45.77
2018-03-11T09:45:41.205Z,51.67
2018-03-11T09:48:11.355Z,49.40
2018-03-11T09:50:41.590Z,45.90
2018-03-11T09:53:12.164Z,54.50
2018-03-11T09:55:42.190Z,54.90
2018-03-11T09:58:13.542Z,50.10
2018-03-11T10:00:44.691Z,49.53
2018-03-11T10:03:14.805Z,52.20
2018-03-11T10:05:46.265Z,45.63
2018-03-11T10:08:16.883Z,58.17
2018-03-11T10:10:48.035Z,43.33
2018-03-11T10:13:19.583Z,50.77
2018-03-11T10:15:51.547Z,48.87
2018-03-11T10:18:21.660Z,53.53
2018-03-11T10:20:53.223Z,52.47
2018-03-11T10:23:24.358Z,50.50
2018-03-11T10:25:54.428Z,54.50
2018-03-11T10:28:25.631Z,48.17
2018-03-11T10:30:55.702Z,51.50
2018-03-11T10:33:25.651Z,53.80
2018-03-11T10:35:57.617Z,50.47
2018-03-11T10:38:29.581Z,55.83
2018-03-11T10:40:59.650Z,49.30
2018-03-11T10:43:30.446Z,63.80
2018-03-11T10:46:01.061Z,60.20
2018-03-11T10:48:31.795Z,49.10
2018-03-11T10:51:02.328Z,59.87
2018-03-11T10:53:32.054Z,62.33
2018-03-11T10:56:03.690Z,58.00
2018-03-11T10:58:33.500Z,53.97
2018-03-11T11:01:08.332Z,59.97
2018-03-11T11:03:40.242Z,59.53
2018-03-11T11:06:10.820Z,53.93
2018-03-11T11:08:41.484Z,55.30
2018-03-11T11:11:13.819Z,60.73
2018-03-11T11:13:43.909Z,56.67
2018-03-11T11:16:14.784Z,57.33
2018-03-11T11:18:48.128Z,64.30
2018-03-11T11:21:18.498Z,61.67
2018-03-11T11:23:48.297Z,55.10
2018-03-11T11:26:18.128Z,63.97
2018-03-11T11:28:50.494Z,62.07
2018-03-11T11:31:22.275Z,68.80
2018-03-11T11:33:53.190Z,62.10
2018-03-11T11:36:23.929Z,66.03
2018-03-11T11:38:53.790Z,60.77
2018-03-11T11:41:23.752Z,60.23
2018-03-11T11:43:53.710Z,61.73
2018-03-11T11:46:23.954Z,66.63
2018-03-11T11:48:53.720Z,56.87
2018-03-11T11:51:23.502Z,55.90
2018-03-11T11:53:53.528Z,64.47
2018-03-11T11:56:25.088Z,62.07
2018-03-11T11:58:55.144Z,63.23
2018-03-11T12:01:25.128Z,59.60
2018-03-11T12:03:55.029Z,63.33
2018-03-11T12:06:26.954Z,63.03
2018-03-11T12:08:56.811Z,66.10
2018-03-11T12:11:27.639Z,58.80
2018-03-11T12:13:58.986Z,73.43
2018-03-11T12:16:29.882Z,73.03
2018-03-11T12:19:00.045Z,59.70
2018-03-11T12:21:29.967Z,65.10
2018-03-11T12:24:00.085Z,57.97
2018-03-11T12:26:31.840Z,74.30
2018-03-11T12:29:01.761Z,64.03
2018-03-11T12:31:32.442Z,67.07
2018-03-11T12:34:02.403Z,63.87
2018-03-11T12:36:32.312Z,70.00
2018-03-11T12:39:02.187Z,68.53
2018-03-11T12:41:32.354Z,67.07
2018-03-11T12:44:03.288Z,61.60
2018-03-11T12:46:34.631Z,66.57
2018-03-11T12:49:04.652Z,70.40
2018-03-11T12:51:34.579Z,63.87
2018-03-11T12:54:05.277Z,60.63
2018-03-11T12:56:35.108Z,67.30
2018-03-11T12:59:05.022Z,64.93
2018-03-11T13:01:35.959Z,59.20
2018-03-11T13:04:06.080Z,56.13
2018-03-11T13:06:35.996Z,61.57
2018-03-11T13:09:06.322Z,62.27
2018-03-11T13:11:36.441Z,60.50
2018-03-11T13:14:07.380Z,64.17
2018-03-11T13:16:38.688Z,60.43
2018-03-11T13:19:08.855Z,56.17
2018-03-11T13:21:38.978Z,58.23
2018-03-11T13:24:09.081Z,60.57
2018-03-11T13:26:41.136Z,60.83
2018-03-11T13:29:11.270Z,66.00
2018-03-11T13:31:42.305Z,54.27
2018-03-11T13:34:22.446Z,71.37
2018-03-11T13:36:52.580Z,62.07
2018-03-11T13:39:33.502Z,54.30
2018-03-11T13:42:03.263Z,56.33
2018-03-11T13:44:33.431Z,77.97
2018-03-11T13:47:04.713Z,77.40
2018-03-11T13:49:34.644Z,74.87
2018-03-11T13:52:16.850Z,63.00
2018-03-11T13:54:47.537Z,70.80
2018-03-11T13:57:30.155Z,68.07
2018-03-11T14:00:00.021Z,67.30
2018-03-11T14:02:30.637Z,64.50
2018-03-11T14:05:00.633Z,51.10
2018-03-11T14:07:31.394Z,66.83
2018-03-11T14:10:02.991Z,58.23
2018-03-11T14:12:33.568Z,63.77
2018-03-11T14:15:04.304Z,60.00
2018-03-11T14:17:35.243Z,57.53
2018-03-11T14:20:05.780Z,57.90
2018-03-11T14:22:36.098Z,66.00
2018-03-11T14:25:08.888Z,59.33
2018-03-11T14:27:39.918Z,52.97
2018-03-11T14:30:12.804Z,51.20
2018-03-11T14:32:43.910Z,50.27
2018-03-11T14:35:15.090Z,60.23
2018-03-11T14:37:47.256Z,56.00
2018-03-11T14:40:18.809Z,52.80
2018-03-11T14:42:51.951Z,51.53
2018-03-11T14:45:22.733Z,55.10
2018-03-11T14:47:55.071Z,50.17
2018-03-11T14:50:25.749Z,50.60
2018-03-11T14:52:57.832Z,50.43
2018-03-11T14:55:28.138Z,55.00
2018-03-11T14:57:58.972Z,51.43
2018-03-11T15:00:30.595Z,52.50
2018-03-11T15:03:01.769Z,54.23
2018-03-11T15:05:33.470Z,46.40
2018-03-11T15:08:04.662Z,46.50
2018-03-11T15:10:36.067Z,44.17
2018-03-11T15:13:06.137Z,46.67
2018-03-11T15:15:37.492Z,47.07
2018-03-11T15:18:08.128Z,45.47
2018-03-11T15:20:38.742Z,46.90
2018-03-11T15:23:09.640Z,47.47
2018-03-11T15:25:39.615Z,54.00
2018-03-11T15:28:11.935Z,45.23
2018-03-11T15:30:44.096Z,51.97
2018-03-11T15:33:15.273Z,50.70
2018-03-11T15:35:48.845Z,47.00
2018-03-11T15:38:22.280Z,54.30
2018-03-11T15:40:55.062Z,52.30
2018-03-11T15:43:26.818Z,47.83
2018-03-11T15:45:57.263Z,51.73
2018-03-11T15:48:29.462Z,46.80
2018-03-11T15:50:59.720Z,44.33
2018-03-11T15:53:29.745Z,74.33
2018-03-11T15:56:01.063Z,276.40
2018-03-11T15:58:32.041Z,297.03
2018-03-11T16:01:06.456Z,233.63
2018-03-11T16:03:37.501Z,175.50
2018-03-11T16:06:10.455Z,169.40
2018-03-11T16:08:42.504Z,199.60
2018-03-11T16:11:13.174Z,194.23
2018-03-11T16:13:44.503Z,153.70
2018-03-11T16:16:19.559Z,141.47
2018-03-11T16:18:51.811Z,139.40
2018-03-11T16:21:22.865Z,124.37
2018-03-11T16:23:54.626Z,110.57
2018-03-11T16:26:25.358Z,119.63
2018-03-11T16:28:57.938Z,93.37
2018-03-11T16:31:28.791Z,101.10
2018-03-11T16:33:59.942Z,88.50
2018-03-11T16:36:29.931Z,87.23
2018-03-11T16:39:01.851Z,82.13
2018-03-11T16:41:32.197Z,85.87
2018-03-11T16:44:04.404Z,79.97
2018-03-11T16:46:34.314Z,75.57
2018-03-11T16:49:05.167Z,77.73
2018-03-11T16:51:35.358Z,70.17
2018-03-11T16:54:06.980Z,70.73
2018-03-11T16:56:38.426Z,71.33
2018-03-11T16:59:09.780Z,68.50
2018-03-11T17:01:40.535Z,65.37
2018-03-11T17:04:13.121Z,60.90
2018-03-11T17:06:43.854Z,63.80
2018-03-11T17:09:14.590Z,69.67
2018-03-11T17:11:45.703Z,60.70
2018-03-11T17:14:16.874Z,65.77
2018-03-11T17:16:47.607Z,58.53
2018-03-11T17:19:18.771Z,57.40
2018-03-11T17:21:49.283Z,57.17
2018-03-11T17:24:21.841Z,48.70
2018-03-11T17:26:52.538Z,48.93
2018-03-11T17:29:24.766Z,51.70
2018-03-11T17:31:54.779Z,50.23
2018-03-11T17:34:24.728Z,52.20
2018-03-11T17:36:54.713Z,44.70
2018-03-11T17:39:25.557Z,44.80
2018-03-11T17:41:56.646Z,44.63
2018-03-11T17:44:27.752Z,46.27
2018-03-11T17:46:59.486Z,40.67
2018-03-11T17:49:29.606Z,47.17
2018-03-11T17:52:00.549Z,43.70
2018-03-11T17:54:33.141Z,43.93
2018-03-11T17:57:03.238Z,45.77
2018-03-11T17:59:34.425Z,45.93
2018-03-11T18:02:04.783Z,45.83
2018-03-11T18:04:35.356Z,44.77
2018-03-11T18:07:06.377Z,45.10
2018-03-11T18:09:37.982Z,46.77
2018-03-11T18:12:08.665Z,44.40
2018-03-11T18:14:40.428Z,45.53
2018-03-11T18:17:10.807Z,47.60
2018-03-11T18:19:41.682Z,45.70
2018-03-11T18:22:13.389Z,50.37
2018-03-11T18:24:43.329Z,46.47
2018-03-11T18:27:13.694Z,49.80
2018-03-11T18:29:43.948Z,48.00
2018-03-11T18:32:14.392Z,47.13
2018-03-11T18:34:44.704Z,47.07
2018-03-11T18:37:15.451Z,44.43
2018-03-11T18:39:45.709Z,46.10
2018-03-11T18:42:15.528Z,46.73
2018-03-11T18:44:47.387Z,41.57
2018-03-11T18:47:18.319Z,43.50
2018-03-11T18:49:48.438Z,46.83
2018-03-11T18:52:18.925Z,42.50
2018-03-11T18:54:48.973Z,41.77
2018-03-11T18:57:19.104Z,44.03
2018-03-11T18:59:49.231Z,44.00
2018-03-11T19:02:20.161Z,41.63
2018-03-11T19:04:51.705Z,42.00
2018-03-11T19:07:22.036Z,40.57
2018-03-11T19:09:52.128Z,39.20
2018-03-11T19:12:22.891Z,43.87
2018-03-11T19:14:52.804Z,38.83
2018-03-11T19:17:22.876Z,42.10
2018-03-11T19:19:53.018Z,41.30
2018-03-11T19:22:23.676Z,45.10
2018-03-11T19:24:53.695Z,40.70
2018-03-11T19:27:24.015Z,41.73
2018-03-11T19:29:55.656Z,38.47
2018-03-11T19:32:26.578Z,45.43
2018-03-11T19:34:56.420Z,40.40
2018-03-11T19:37:26.747Z,33.97
2018-03-11T19:39:58.078Z,36.20
2018-03-11T19:42:28.113Z,39.73
2018-03-11T19:44:59.221Z,38.80
2018-03-11T19:47:30.500Z,37.53
2018-03-11T19:50:02.114Z,36.20
2018-03-11T19:52:32.376Z,36.40
2018-03-11T19:55:02.705Z,35.57
2018-03-11T19:57:32.983Z,34.90
2018-03-11T20:00:03.746Z,39.50
2018-03-11T20:02:33.763Z,37.33
2018-03-11T20:05:05.131Z,33.17
2018-03-11T20:07:35.431Z,36.60
2018-03-11T20:10:08.085Z,32.10
2018-03-11T20:12:38.822Z,36.87
2018-03-11T20:15:08.714Z,37.30
2018-03-11T20:17:39.856Z,31.50
2018-03-11T20:20:09.880Z,32.40
2018-03-11T20:22:40.154Z,29.33
2018-03-11T20:25:11.467Z,31.20
2018-03-11T20:27:41.398Z,32.90
2018-03-11T20:30:13.120Z,35.77
2018-03-11T20:32:43.256Z,33.63
2018-03-11T20:35:13.451Z,31.50
2018-03-11T20:37:43.392Z,35.73
2018-03-11T20:40:13.655Z,34.70
2018-03-11T20:42:43.565Z,34.57
2018-03-11T20:45:13.480Z,40.60
2018-03-11T20:47:43.601Z,33.20
2018-03-11T20:50:14.950Z,36.00
2018-03-11T20:52:46.466Z,32.07
2018-03-11T20:55:18.505Z,34.60
2018-03-11T20:57:48.527Z,30.47
2018-03-11T21:00:18.550Z,26.33
2018-03-11T21:02:48.620Z,30.37
2018-03-11T21:05:19.229Z,37.67
2018-03-11T21:07:49.057Z,30.97
2018-03-11T21:10:19.176Z,26.90
2018-03-11T21:12:49.241Z,33.97
2018-03-11T21:15:19.827Z,27.60
2018-03-11T21:17:50.730Z,28.50
2018-03-11T21:20:20.630Z,29.33
2018-03-11T21:22:50.551Z,25.13
2018-03-11T21:25:20.710Z,23.80
2018-03-11T21:27:50.633Z,25.17
2018-03-11T21:30:29.402Z,26.50
2018-03-11T21:32:59.261Z,27.27
2018-03-11T21:35:29.177Z,25.47
2018-03-11T21:37:59.089Z,26.20
2018-03-11T21:40:29.886Z,29.10
2018-03-11T21:42:59.891Z,24.90
2018-03-11T21:45:30.267Z,28.70
2018-03-11T21:48:00.249Z,24.23
2018-03-11T21:50:30.094Z,23.63
2018-03-11T21:53:00.010Z,24.47
2018-03-11T21:55:29.924Z,23.20
2018-03-11T21:58:00.453Z,21.63
2018-03-11T22:00:31.187Z,24.90
2018-03-11T22:03:01.108Z,23.80
2018-03-11T22:05:32.652Z,23.97
2018-03-11T22:08:02.571Z,24.07
2018-03-11T22:10:32.440Z,23.83
2018-03-11T22:13:02.406Z,26.20
2018-03-11T22:15:32.048Z,24.10
2018-03-11T22:18:02.021Z,21.43
2018-03-11T22:20:31.736Z,21.33
2018-03-11T22:23:01.597Z,21.57
2018-03-11T22:25:31.360Z,21.27
2018-03-11T22:28:01.475Z,20.50
2018-03-11T22:30:32.822Z,20.10
2018-03-11T22:33:03.353Z,21.50
2018-03-11T22:35:33.060Z,23.53
2018-03-11T22:38:02.973Z,18.70
2018-03-11T22:40:34.534Z,20.47
2018-03-11T22:43:04.456Z,21.30
2018-03-11T22:45:34.565Z,18.27
2018-03-11T22:48:05.296Z,18.80
2018-03-11T22:50:36.145Z,17.53
2018-03-11T22:53:06.768Z,20.80
2018-03-11T22:55:37.290Z,18.57
2018-03-11T22:58:07.006Z,17.80
2018-03-11T23:00:37.259Z,20.47
2018-03-11T23:03:07.035Z,18.50
2018-03-11T23:05:36.746Z,16.47
2018-03-11T23:08:08.094Z,18.00
2018-03-11T23:10:38.416Z,18.20
2018-03-11T23:13:09.713Z,15.97
2018-03-11T23:15:39.473Z,18.07
2018-03-11T23:18:10.208Z,16.73
2018-03-11T23:20:40.121Z,16.80
2018-03-11T23:23:09.829Z,16.23
2018-03-11T23:25:39.605Z,17.47
2018-03-11T23:28:09.401Z,15.77
2018-03-11T23:30:39.366Z,16.97
2018-03-11T23:33:09.282Z,14.37
2018-03-11T23:35:39.811Z,14.53
2018-03-11T23:38:09.726Z,15.60
2018-03-11T23:40:39.434Z,14.70
2018-03-11T23:43:09.146Z,14.23
2018-03-11T23:45:39.058Z,11.73
2018-03-11T23:48:10.408Z,13.37
2018-03-11T23:50:40.935Z,11.17
2018-03-11T23:53:10.807Z,10.80
2018-03-11T23:55:40.563Z,11.07
2018-03-11T23:58:10.474Z,10.90
